Butterfly — C6UP2 — position and weather

sailwx.info

Track history (hours):
 
Tides and Currents Weather Stations Pressure Air Temp Water Temp Dewpoint Dewpoint Depression Visibility Wind Speed Wind Dir Waves Ship Positions

Butterfly

Last reported at 2016-Feb-12 12:29 UTC. Time now 2016-Feb-13 08:55 UTC.
Position N 37°34' W 000°58'.

Length 182 m; draft 7 m.

Type: Tanker. MMSI: 311985000.

Date/timePositionNaut miles runAvg speedWind from/ knotsBaromVisibWave heightAir tempDewpointWater temp
2016-Feb-12 12:29N 37°34' W 000°58'2 2.3
2016-Feb-12 11:33N 37°33' W 001°00'3 2.9
2016-Feb-12 10:33N 37°30' W 001°01'10 9.8
2016-Feb-12 09:31N 37°23' W 001°09'21213.1
2016-Feb-11 17:18N 36°00' W 005°13'1216.5
2016-Feb-11 16:34N 35°57' W 005°27'52112.9
2016-Feb-10 00:17N 30°15' W 013°16'4812.7
2016-Feb-09 20:33N 29°38' W 013°51'1312.8
2016-Feb-09 19:32N 29°27' W 013°59'1212.7
2016-Feb-09 18:33N 29°16' W 014°06'1412.6
2016-Feb-09 17:28N 29°06' W 014°16'1212.9
2016-Feb-09 16:33N 28°56' W 014°23'1312.5
2016-Feb-09 15:30N 28°45' W 014°32'1212.2
2016-Feb-09 14:32N 28°35' W 014°39'1212.5
2016-Feb-09 13:33N 28°25' W 014°47'1312.9
2016-Feb-09 12:33N 28°13' W 014°53'1312.7
2016-Feb-09 11:33N 28°01' W 014°58'1312.7
2016-Feb-09 10:33N 27°49' W 015°03'1212.0
2016-Feb-09 09:33N 27°38' W 015°07'1312.4
2016-Feb-09 08:31N 27°26' W 015°12'1312.7
2016-Feb-09 07:32N 27°14' W 015°17'  
Track history (hours):
 
Tides and Currents Weather Stations Pressure Air Temp Water Temp Dewpoint Dewpoint Depression Visibility Wind Speed Wind Dir Waves Ship Positions

Butterfly

Last reported at 2016-Feb-12 12:29 UTC. Time now 2016-Feb-13 08:55 UTC.
Position N 37°34' W 000°58'.

Length 182 m; draft 7 m.

Type: Tanker. MMSI: 311985000.

Date/timePositionNaut miles runAvg speedWind from/ knotsBaromVisibWave heightAir tempDewpointWater temp
2016-Feb-12 12:29N 37°34' W 000°58'2 2.3
2016-Feb-12 11:33N 37°33' W 001°00'3 2.9
2016-Feb-12 10:33N 37°30' W 001°01'10 9.8
2016-Feb-12 09:31N 37°23' W 001°09'21213.1
2016-Feb-11 17:18N 36°00' W 005°13'1216.5
2016-Feb-11 16:34N 35°57' W 005°27'52112.9
2016-Feb-10 00:17N 30°15' W 013°16'4812.7
2016-Feb-09 20:33N 29°38' W 013°51'1312.8
2016-Feb-09 19:32N 29°27' W 013°59'1212.7
2016-Feb-09 18:33N 29°16' W 014°06'1412.6
2016-Feb-09 17:28N 29°06' W 014°16'1212.9
2016-Feb-09 16:33N 28°56' W 014°23'1312.5
2016-Feb-09 15:30N 28°45' W 014°32'1212.2
2016-Feb-09 14:32N 28°35' W 014°39'1212.5
2016-Feb-09 13:33N 28°25' W 014°47'1312.9
2016-Feb-09 12:33N 28°13' W 014°53'1312.7
2016-Feb-09 11:33N 28°01' W 014°58'1312.7
2016-Feb-09 10:33N 27°49' W 015°03'1212.0
2016-Feb-09 09:33N 27°38' W 015°07'1312.4
2016-Feb-09 08:31N 27°26' W 015°12'1312.7
2016-Feb-09 07:32N 27°14' W 015°17'  

Dump ship's entire track history